Hilok, Russia
Current Conditions -  °F | °C
As of 4:00 AM on Sunday 26 Oct 2014 (Local Time) from UIAA Reporting Station
Clear Clear  
Wind Chill:   Ceiling: Unl
Heat Index: 10°   Visibility: 6mi
Dew Point: -2°   Wind: 7mph
Humidity: 57%   Direction: 290°WNW
Pressure: 30.45"   Gusts: NA
Location:  51.35°N, 110.45°E
Report Text: UIAA 251900Z 29003MPS 9999 SKC M12/M19 Q1031 NOSIG RMK QFE71429CLRD70
Loading
Personal Weather Stations






























Interactive Weather Map
Tropical Storm Tracking
New forecast layout! Learn more

10-Day Weather Forecast

Advertisements
Track Severe Weather on mobile